sensor_id;sensor_type;location;lat;lon;timestamp;P1;durP1;ratioP1;P2;durP2;ratioP2
23474;SDS011;11910;52.086;21.066;2023-08-01T00:00:56;5.53;;;3.58;;
23474;SDS011;11910;52.086;21.066;2023-08-01T00:03:21;5.40;;;3.67;;
23474;SDS011;11910;52.086;21.066;2023-08-01T00:05:47;7.55;;;3.60;;
23474;SDS011;11910;52.086;21.066;2023-08-01T00:08:13;7.60;;;3.65;;
23474;SDS011;11910;52.086;21.066;2023-08-01T00:10:39;8.02;;;3.72;;
23474;SDS011;11910;52.086;21.066;2023-08-01T00:13:08;7.65;;;3.70;;
23474;SDS011;11910;52.086;21.066;2023-08-01T00:15:34;6.85;;;4.07;;
23474;SDS011;11910;52.086;21.066;2023-08-01T00:18:00;6.03;;;3.88;;
23474;SDS011;11910;52.086;21.066;2023-08-01T00:20:26;6.28;;;3.88;;
23474;SDS011;11910;52.086;21.066;2023-08-01T00:22:51;6.35;;;3.53;;
23474;SDS011;11910;52.086;21.066;2023-08-01T00:25:17;5.32;;;3.90;;
23474;SDS011;11910;52.086;21.066;2023-08-01T00:27:43;6.80;;;3.67;;
23474;SDS011;11910;52.086;21.066;2023-08-01T00:30:09;5.63;;;4.05;;
23474;SDS011;11910;52.086;21.066;2023-08-01T00:32:35;5.32;;;4.10;;
23474;SDS011;11910;52.086;21.066;2023-08-01T00:35:02;6.50;;;4.07;;
23474;SDS011;11910;52.086;21.066;2023-08-01T00:37:28;7.03;;;4.03;;
23474;SDS011;11910;52.086;21.066;2023-08-01T00:39:54;6.55;;;3.90;;
23474;SDS011;11910;52.086;21.066;2023-08-01T00:42:20;7.07;;;4.15;;
23474;SDS011;11910;52.086;21.066;2023-08-01T00:44:45;6.40;;;4.03;;
23474;SDS011;11910;52.086;21.066;2023-08-01T00:47:13;5.05;;;3.78;;
23474;SDS011;11910;52.086;21.066;2023-08-01T00:49:39;6.50;;;4.10;;
23474;SDS011;11910;52.086;21.066;2023-08-01T00:52:05;6.63;;;4.03;;
23474;SDS011;11910;52.086;21.066;2023-08-01T00:54:32;7.30;;;4.30;;
23474;SDS011;11910;52.086;21.066;2023-08-01T00:57:02;7.57;;;4.20;;
23474;SDS011;11910;52.086;21.066;2023-08-01T00:59:30;5.00;;;3.80;;
23474;SDS011;11910;52.086;21.066;2023-08-01T01:01:56;7.03;;;4.32;;
23474;SDS011;11910;52.086;21.066;2023-08-01T01:04:23;6.05;;;4.00;;
23474;SDS011;11910;52.086;21.066;2023-08-01T01:06:53;6.85;;;4.22;;
23474;SDS011;11910;52.086;21.066;2023-08-01T01:09:29;5.18;;;3.83;;
23474;SDS011;11910;52.086;21.066;2023-08-01T01:11:58;8.07;;;4.00;;
23474;SDS011;11910;52.086;21.066;2023-08-01T01:14:25;5.95;;;4.07;;
23474;SDS011;11910;52.086;21.066;2023-08-01T01:16:54;10.35;;;4.28;;
23474;SDS011;11910;52.086;21.066;2023-08-01T01:19:20;8.32;;;4.10;;
23474;SDS011;11910;52.086;21.066;2023-08-01T01:21:46;5.45;;;3.90;;
23474;SDS011;11910;52.086;21.066;2023-08-01T01:24:13;6.32;;;4.13;;
23474;SDS011;11910;52.086;21.066;2023-08-01T01:26:40;7.15;;;4.10;;
23474;SDS011;11910;52.086;21.066;2023-08-01T01:29:07;8.05;;;4.60;;
23474;SDS011;11910;52.086;21.066;2023-08-01T01:31:35;6.95;;;4.10;;
23474;SDS011;11910;52.086;21.066;2023-08-01T01:34:02;7.80;;;4.30;;
23474;SDS011;11910;52.086;21.066;2023-08-01T01:36:29;9.60;;;4.43;;
23474;SDS011;11910;52.086;21.066;2023-08-01T01:38:54;6.57;;;4.28;;
23474;SDS011;11910;52.086;21.066;2023-08-01T01:41:20;7.55;;;4.40;;
23474;SDS011;11910;52.086;21.066;2023-08-01T01:43:47;7.13;;;4.70;;
23474;SDS011;11910;52.086;21.066;2023-08-01T01:46:13;6.75;;;4.30;;
23474;SDS011;11910;52.086;21.066;2023-08-01T01:48:38;7.18;;;4.32;;
23474;SDS011;11910;52.086;21.066;2023-08-01T01:51:04;6.88;;;4.50;;
23474;SDS011;11910;52.086;21.066;2023-08-01T01:53:29;6.95;;;4.43;;
23474;SDS011;11910;52.086;21.066;2023-08-01T01:55:55;7.18;;;4.50;;
23474;SDS011;11910;52.086;21.066;2023-08-01T01:58:20;7.10;;;4.32;;
23474;SDS011;11910;52.086;21.066;2023-08-01T02:00:46;9.15;;;4.30;;
23474;SDS011;11910;52.086;21.066;2023-08-01T02:03:13;7.40;;;4.50;;
23474;SDS011;11910;52.086;21.066;2023-08-01T02:05:41;8.38;;;4.22;;
23474;SDS011;11910;52.086;21.066;2023-08-01T02:08:07;7.25;;;4.22;;
23474;SDS011;11910;52.086;21.066;2023-08-01T02:10:33;11.15;;;4.30;;
23474;SDS011;11910;52.086;21.066;2023-08-01T02:12:58;5.63;;;4.35;;
23474;SDS011;11910;52.086;21.066;2023-08-01T02:15:24;6.60;;;3.90;;
23474;SDS011;11910;52.086;21.066;2023-08-01T02:17:49;7.32;;;4.13;;
23474;SDS011;11910;52.086;21.066;2023-08-01T02:20:15;6.18;;;4.15;;
23474;SDS011;11910;52.086;21.066;2023-08-01T02:22:41;7.32;;;4.03;;
23474;SDS011;11910;52.086;21.066;2023-08-01T02:25:06;9.15;;;4.15;;
23474;SDS011;11910;52.086;21.066;2023-08-01T02:27:32;9.02;;;4.22;;
23474;SDS011;11910;52.086;21.066;2023-08-01T02:29:58;7.28;;;4.32;;
23474;SDS011;11910;52.086;21.066;2023-08-01T02:32:23;5.95;;;4.10;;
23474;SDS011;11910;52.086;21.066;2023-08-01T02:34:49;5.90;;;3.80;;
23474;SDS011;11910;52.086;21.066;2023-08-01T02:37:14;5.55;;;4.30;;
23474;SDS011;11910;52.086;21.066;2023-08-01T02:39:40;6.30;;;4.18;;
23474;SDS011;11910;52.086;21.066;2023-08-01T02:42:05;5.45;;;3.92;;
23474;SDS011;11910;52.086;21.066;2023-08-01T02:44:31;7.30;;;4.13;;
23474;SDS011;11910;52.086;21.066;2023-08-01T02:46:57;6.88;;;4.35;;
23474;SDS011;11910;52.086;21.066;2023-08-01T02:49:22;5.72;;;4.18;;
23474;SDS011;11910;52.086;21.066;2023-08-01T02:51:48;7.50;;;4.20;;
23474;SDS011;11910;52.086;21.066;2023-08-01T02:54:14;6.75;;;4.35;;
23474;SDS011;11910;52.086;21.066;2023-08-01T02:56:39;8.15;;;4.22;;
23474;SDS011;11910;52.086;21.066;2023-08-01T02:59:09;5.93;;;4.32;;
23474;SDS011;11910;52.086;21.066;2023-08-01T03:01:35;10.68;;;4.30;;
23474;SDS011;11910;52.086;21.066;2023-08-01T03:04:05;8.18;;;4.88;;
23474;SDS011;11910;52.086;21.066;2023-08-01T03:06:31;5.93;;;4.05;;
23474;SDS011;11910;52.086;21.066;2023-08-01T03:08:57;4.82;;;3.95;;
23474;SDS011;11910;52.086;21.066;2023-08-01T03:11:24;8.10;;;4.43;;
23474;SDS011;11910;52.086;21.066;2023-08-01T03:13:49;6.65;;;4.60;;
23474;SDS011;11910;52.086;21.066;2023-08-01T03:16:16;9.27;;;4.47;;
23474;SDS011;11910;52.086;21.066;2023-08-01T03:18:41;5.97;;;4.57;;
23474;SDS011;11910;52.086;21.066;2023-08-01T03:21:08;6.68;;;4.10;;
23474;SDS011;11910;52.086;21.066;2023-08-01T03:23:33;6.22;;;4.13;;
23474;SDS011;11910;52.086;21.066;2023-08-01T03:25:59;7.43;;;4.85;;
23474;SDS011;11910;52.086;21.066;2023-08-01T03:28:25;7.60;;;4.00;;
23474;SDS011;11910;52.086;21.066;2023-08-01T03:30:51;6.63;;;4.22;;
23474;SDS011;11910;52.086;21.066;2023-08-01T03:33:18;10.05;;;4.82;;
23474;SDS011;11910;52.086;21.066;2023-08-01T03:35:47;5.63;;;4.20;;
23474;SDS011;11910;52.086;21.066;2023-08-01T03:38:12;4.18;;;3.78;;
23474;SDS011;11910;52.086;21.066;2023-08-01T03:40:38;8.20;;;4.18;;
23474;SDS011;11910;52.086;21.066;2023-08-01T03:43:04;8.73;;;4.18;;
23474;SDS011;11910;52.086;21.066;2023-08-01T03:45:31;6.88;;;4.25;;
23474;SDS011;11910;52.086;21.066;2023-08-01T03:47:57;6.57;;;4.18;;
23474;SDS011;11910;52.086;21.066;2023-08-01T03:50:22;5.65;;;3.80;;
23474;SDS011;11910;52.086;21.066;2023-08-01T03:52:48;8.43;;;3.80;;
23474;SDS011;11910;52.086;21.066;2023-08-01T03:55:13;10.00;;;4.38;;
23474;SDS011;11910;52.086;21.066;2023-08-01T03:57:39;6.22;;;4.00;;
23474;SDS011;11910;52.086;21.066;2023-08-01T04:00:06;8.60;;;3.60;;
23474;SDS011;11910;52.086;21.066;2023-08-01T04:02:38;6.80;;;3.75;;
23474;SDS011;11910;52.086;21.066;2023-08-01T04:05:07;7.25;;;4.05;;
23474;SDS011;11910;52.086;21.066;2023-08-01T04:07:37;7.22;;;3.78;;
23474;SDS011;11910;52.086;21.066;2023-08-01T04:10:03;7.82;;;4.30;;
23474;SDS011;11910;52.086;21.066;2023-08-01T04:12:30;4.90;;;3.83;;
23474;SDS011;11910;52.086;21.066;2023-08-01T04:14:57;7.95;;;4.15;;
23474;SDS011;11910;52.086;21.066;2023-08-01T04:17:23;6.18;;;3.80;;
23474;SDS011;11910;52.086;21.066;2023-08-01T04:19:48;6.47;;;3.80;;
23474;SDS011;11910;52.086;21.066;2023-08-01T04:22:14;7.35;;;3.70;;
23474;SDS011;11910;52.086;21.066;2023-08-01T04:24:40;10.82;;;3.65;;
23474;SDS011;11910;52.086;21.066;2023-08-01T04:27:05;8.43;;;3.67;;
23474;SDS011;11910;52.086;21.066;2023-08-01T04:29:31;6.00;;;3.42;;
23474;SDS011;11910;52.086;21.066;2023-08-01T04:31:56;6.85;;;4.13;;
23474;SDS011;11910;52.086;21.066;2023-08-01T04:34:23;5.22;;;3.60;;
23474;SDS011;11910;52.086;21.066;2023-08-01T04:36:49;9.45;;;3.88;;
23474;SDS011;11910;52.086;21.066;2023-08-01T04:39:14;7.97;;;3.72;;
23474;SDS011;11910;52.086;21.066;2023-08-01T04:41:40;9.27;;;4.03;;
23474;SDS011;11910;52.086;21.066;2023-08-01T04:44:05;7.53;;;3.80;;
23474;SDS011;11910;52.086;21.066;2023-08-01T04:46:31;6.45;;;3.70;;
23474;SDS011;11910;52.086;21.066;2023-08-01T04:48:57;8.18;;;3.90;;
23474;SDS011;11910;52.086;21.066;2023-08-01T04:51:24;8.32;;;3.95;;
23474;SDS011;11910;52.086;21.066;2023-08-01T04:53:50;9.23;;;3.72;;
23474;SDS011;11910;52.086;21.066;2023-08-01T04:56:15;6.03;;;3.70;;
23474;SDS011;11910;52.086;21.066;2023-08-01T04:58:41;7.38;;;4.03;;
23474;SDS011;11910;52.086;21.066;2023-08-01T05:01:07;7.05;;;3.67;;
23474;SDS011;11910;52.086;21.066;2023-08-01T05:03:33;9.50;;;3.53;;
23474;SDS011;11910;52.086;21.066;2023-08-01T05:05:58;11.02;;;3.35;;
23474;SDS011;11910;52.086;21.066;2023-08-01T05:08:24;3.95;;;3.08;;
23474;SDS011;11910;52.086;21.066;2023-08-01T05:10:49;6.22;;;3.80;;
23474;SDS011;11910;52.086;21.066;2023-08-01T05:13:15;7.88;;;3.70;;
23474;SDS011;11910;52.086;21.066;2023-08-01T05:15:43;6.80;;;3.58;;
23474;SDS011;11910;52.086;21.066;2023-08-01T05:18:13;6.68;;;3.60;;
23474;SDS011;11910;52.086;21.066;2023-08-01T05:20:40;8.27;;;3.63;;
23474;SDS011;11910;52.086;21.066;2023-08-01T05:23:06;5.90;;;3.42;;
23474;SDS011;11910;52.086;21.066;2023-08-01T05:25:31;6.78;;;3.45;;
23474;SDS011;11910;52.086;21.066;2023-08-01T05:27:57;5.40;;;3.42;;
23474;SDS011;11910;52.086;21.066;2023-08-01T05:30:23;4.45;;;3.10;;
23474;SDS011;11910;52.086;21.066;2023-08-01T05:32:49;8.10;;;3.53;;
23474;SDS011;11910;52.086;21.066;2023-08-01T05:35:15;7.30;;;3.35;;
23474;SDS011;11910;52.086;21.066;2023-08-01T05:37:40;5.97;;;3.13;;
23474;SDS011;11910;52.086;21.066;2023-08-01T05:40:06;6.35;;;3.35;;
23474;SDS011;11910;52.086;21.066;2023-08-01T05:42:32;6.05;;;3.30;;
23474;SDS011;11910;52.086;21.066;2023-08-01T05:44:58;6.40;;;3.20;;
23474;SDS011;11910;52.086;21.066;2023-08-01T05:47:23;8.68;;;3.60;;
23474;SDS011;11910;52.086;21.066;2023-08-01T05:49:49;5.28;;;3.15;;
23474;SDS011;11910;52.086;21.066;2023-08-01T05:52:15;6.70;;;3.50;;
23474;SDS011;11910;52.086;21.066;2023-08-01T05:54:40;5.40;;;3.50;;
23474;SDS011;11910;52.086;21.066;2023-08-01T05:57:07;5.00;;;3.03;;
23474;SDS011;11910;52.086;21.066;2023-08-01T05:59:33;4.28;;;3.28;;
23474;SDS011;11910;52.086;21.066;2023-08-01T06:01:59;5.47;;;2.88;;
23474;SDS011;11910;52.086;21.066;2023-08-01T06:04:24;4.97;;;3.20;;
23474;SDS011;11910;52.086;21.066;2023-08-01T06:06:50;4.90;;;3.00;;
23474;SDS011;11910;52.086;21.066;2023-08-01T06:09:16;5.40;;;3.25;;
23474;SDS011;11910;52.086;21.066;2023-08-01T06:11:41;8.27;;;3.10;;
23474;SDS011;11910;52.086;21.066;2023-08-01T06:14:07;6.38;;;3.35;;
23474;SDS011;11910;52.086;21.066;2023-08-01T06:16:34;10.20;;;3.40;;
23474;SDS011;11910;52.086;21.066;2023-08-01T06:19:00;5.75;;;2.92;;
23474;SDS011;11910;52.086;21.066;2023-08-01T06:21:25;4.47;;;2.80;;
23474;SDS011;11910;52.086;21.066;2023-08-01T06:23:51;8.65;;;3.40;;
23474;SDS011;11910;52.086;21.066;2023-08-01T06:26:16;6.07;;;3.00;;
23474;SDS011;11910;52.086;21.066;2023-08-01T06:28:42;7.97;;;3.10;;
23474;SDS011;11910;52.086;21.066;2023-08-01T06:31:08;6.13;;;2.90;;
23474;SDS011;11910;52.086;21.066;2023-08-01T06:33:33;6.43;;;3.30;;
23474;SDS011;11910;52.086;21.066;2023-08-01T06:35:59;7.75;;;3.25;;
23474;SDS011;11910;52.086;21.066;2023-08-01T06:38:24;5.75;;;3.15;;
23474;SDS011;11910;52.086;21.066;2023-08-01T06:40:50;5.35;;;2.97;;
23474;SDS011;11910;52.086;21.066;2023-08-01T06:43:16;7.05;;;3.03;;
23474;SDS011;11910;52.086;21.066;2023-08-01T06:45:41;5.03;;;2.78;;
23474;SDS011;11910;52.086;21.066;2023-08-01T06:48:07;9.52;;;3.30;;
23474;SDS011;11910;52.086;21.066;2023-08-01T06:50:33;5.38;;;3.30;;
23474;SDS011;11910;52.086;21.066;2023-08-01T06:52:59;7.60;;;3.03;;
23474;SDS011;11910;52.086;21.066;2023-08-01T06:55:26;6.43;;;2.90;;
23474;SDS011;11910;52.086;21.066;2023-08-01T06:57:52;8.45;;;3.20;;
23474;SDS011;11910;52.086;21.066;2023-08-01T10:09:39;6.53;;;3.40;;
23474;SDS011;11910;52.086;21.066;2023-08-01T10:12:09;4.78;;;3.17;;
23474;SDS011;11910;52.086;21.066;2023-08-01T10:24:23;5.47;;;3.38;;
23474;SDS011;11910;52.086;21.066;2023-08-01T10:27:08;9.98;;;3.53;;
23474;SDS011;11910;52.086;21.066;2023-08-01T10:29:56;5.68;;;3.17;;
23474;SDS011;11910;52.086;21.066;2023-08-01T10:36:28;7.65;;;3.55;;
23474;SDS011;11910;52.086;21.066;2023-08-01T11:03:34;6.88;;;4.10;;
23474;SDS011;11910;52.086;21.066;2023-08-01T11:06:01;3.97;;;3.58;;
23474;SDS011;11910;52.086;21.066;2023-08-01T11:08:41;7.03;;;4.05;;
23474;SDS011;11910;52.086;21.066;2023-08-01T11:11:15;5.20;;;4.32;;
23474;SDS011;11910;52.086;21.066;2023-08-01T11:13:49;6.78;;;4.07;;
23474;SDS011;11910;52.086;21.066;2023-08-01T11:20:04;7.60;;;4.18;;
23474;SDS011;11910;52.086;21.066;2023-08-01T11:39:20;7.28;;;4.20;;
23474;SDS011;11910;52.086;21.066;2023-08-01T11:46:29;7.57;;;4.25;;
23474;SDS011;11910;52.086;21.066;2023-08-01T12:29:21;4.57;;;3.60;;
23474;SDS011;11910;52.086;21.066;2023-08-01T12:31:59;6.15;;;3.65;;
23474;SDS011;11910;52.086;21.066;2023-08-01T12:58:37;5.80;;;3.60;;
23474;SDS011;11910;52.086;21.066;2023-08-01T13:23:39;4.70;;;3.63;;
23474;SDS011;11910;52.086;21.066;2023-08-01T13:27:12;5.43;;;4.05;;
23474;SDS011;11910;52.086;21.066;2023-08-01T13:47:29;4.03;;;3.60;;
23474;SDS011;11910;52.086;21.066;2023-08-01T14:00:41;4.70;;;3.95;;
23474;SDS011;11910;52.086;21.066;2023-08-01T14:03:20;4.78;;;4.10;;
23474;SDS011;11910;52.086;21.066;2023-08-01T14:49:27;9.30;;;5.07;;
23474;SDS011;11910;52.086;21.066;2023-08-01T15:14:15;11.05;;;7.97;;
23474;SDS011;11910;52.086;21.066;2023-08-01T15:23:31;9.52;;;7.20;;
23474;SDS011;11910;52.086;21.066;2023-08-01T15:25:57;8.13;;;6.82;;
23474;SDS011;11910;52.086;21.066;2023-08-01T15:28:24;6.35;;;5.65;;
23474;SDS011;11910;52.086;21.066;2023-08-01T15:31:12;9.52;;;5.68;;
23474;SDS011;11910;52.086;21.066;2023-08-01T15:33:36;8.07;;;5.82;;
23474;SDS011;11910;52.086;21.066;2023-08-01T15:36:03;7.20;;;5.35;;
23474;SDS011;11910;52.086;21.066;2023-08-01T15:38:31;5.50;;;4.97;;
23474;SDS011;11910;52.086;21.066;2023-08-01T15:40:59;5.13;;;4.60;;
23474;SDS011;11910;52.086;21.066;2023-08-01T15:43:31;8.10;;;5.03;;
23474;SDS011;11910;52.086;21.066;2023-08-01T15:45:58;5.53;;;4.20;;
23474;SDS011;11910;52.086;21.066;2023-08-01T15:48:24;7.00;;;4.70;;
23474;SDS011;11910;52.086;21.066;2023-08-01T15:50:50;5.97;;;4.55;;
23474;SDS011;11910;52.086;21.066;2023-08-01T15:53:15;7.55;;;4.70;;
23474;SDS011;11910;52.086;21.066;2023-08-01T15:55:41;7.05;;;4.40;;
23474;SDS011;11910;52.086;21.066;2023-08-01T15:58:06;4.53;;;4.13;;
23474;SDS011;11910;52.086;21.066;2023-08-01T16:00:32;4.88;;;4.28;;
23474;SDS011;11910;52.086;21.066;2023-08-01T16:02:59;5.72;;;4.25;;
23474;SDS011;11910;52.086;21.066;2023-08-01T16:05:25;5.47;;;3.90;;
23474;SDS011;11910;52.086;21.066;2023-08-01T16:07:50;6.25;;;4.15;;
23474;SDS011;11910;52.086;21.066;2023-08-01T16:10:16;5.45;;;3.60;;
23474;SDS011;11910;52.086;21.066;2023-08-01T16:12:42;5.65;;;4.03;;
23474;SDS011;11910;52.086;21.066;2023-08-01T16:15:07;4.88;;;3.80;;
23474;SDS011;11910;52.086;21.066;2023-08-01T16:17:33;4.18;;;3.78;;
23474;SDS011;11910;52.086;21.066;2023-08-01T16:20:00;5.10;;;3.85;;
23474;SDS011;11910;52.086;21.066;2023-08-01T16:22:26;6.43;;;4.25;;
23474;SDS011;11910;52.086;21.066;2023-08-01T16:24:52;4.60;;;3.80;;
23474;SDS011;11910;52.086;21.066;2023-08-01T16:27:17;4.47;;;3.72;;
23474;SDS011;11910;52.086;21.066;2023-08-01T16:29:43;4.03;;;3.60;;
23474;SDS011;11910;52.086;21.066;2023-08-01T16:32:08;4.28;;;3.80;;
23474;SDS011;11910;52.086;21.066;2023-08-01T16:34:34;5.35;;;3.90;;
23474;SDS011;11910;52.086;21.066;2023-08-01T16:37:00;6.40;;;3.83;;
23474;SDS011;11910;52.086;21.066;2023-08-01T16:39:26;5.35;;;3.90;;
23474;SDS011;11910;52.086;21.066;2023-08-01T16:41:52;9.02;;;3.97;;
23474;SDS011;11910;52.086;21.066;2023-08-01T16:44:19;5.43;;;3.78;;
23474;SDS011;11910;52.086;21.066;2023-08-01T16:46:45;4.22;;;3.83;;
23474;SDS011;11910;52.086;21.066;2023-08-01T16:49:11;7.97;;;4.30;;
23474;SDS011;11910;52.086;21.066;2023-08-01T16:51:36;6.85;;;4.03;;
23474;SDS011;11910;52.086;21.066;2023-08-01T16:54:02;6.05;;;4.05;;
23474;SDS011;11910;52.086;21.066;2023-08-01T16:56:29;5.93;;;4.13;;
23474;SDS011;11910;52.086;21.066;2023-08-01T16:58:55;7.45;;;4.35;;
23474;SDS011;11910;52.086;21.066;2023-08-01T17:01:21;4.43;;;3.95;;
23474;SDS011;11910;52.086;21.066;2023-08-01T17:03:47;4.85;;;4.15;;
23474;SDS011;11910;52.086;21.066;2023-08-01T17:06:12;4.22;;;3.60;;
23474;SDS011;11910;52.086;21.066;2023-08-01T17:08:38;6.47;;;3.92;;
23474;SDS011;11910;52.086;21.066;2023-08-01T17:11:06;5.18;;;4.13;;
23474;SDS011;11910;52.086;21.066;2023-08-01T17:13:35;5.10;;;3.95;;
23474;SDS011;11910;52.086;21.066;2023-08-01T17:16:01;4.43;;;4.00;;
23474;SDS011;11910;52.086;21.066;2023-08-01T17:18:27;6.85;;;3.85;;
23474;SDS011;11910;52.086;21.066;2023-08-01T17:20:52;6.45;;;3.55;;
23474;SDS011;11910;52.086;21.066;2023-08-01T17:23:18;5.10;;;3.88;;
23474;SDS011;11910;52.086;21.066;2023-08-01T17:25:43;5.15;;;3.80;;
23474;SDS011;11910;52.086;21.066;2023-08-01T17:28:09;5.68;;;4.00;;
23474;SDS011;11910;52.086;21.066;2023-08-01T18:05:00;4.13;;;3.45;;
23474;SDS011;11910;52.086;21.066;2023-08-01T18:08:10;5.38;;;3.83;;
23474;SDS011;11910;52.086;21.066;2023-08-01T19:49:06;4.77;;;4.10;;
23474;SDS011;11910;52.086;21.066;2023-08-01T19:51:45;5.95;;;4.57;;
23474;SDS011;11910;52.086;21.066;2023-08-01T19:54:26;4.90;;;4.30;;
23474;SDS011;11910;52.086;21.066;2023-08-01T20:03:48;4.80;;;4.30;;
23474;SDS011;11910;52.086;21.066;2023-08-01T20:06:47;4.88;;;4.38;;
23474;SDS011;11910;52.086;21.066;2023-08-01T20:09:23;6.03;;;4.10;;
23474;SDS011;11910;52.086;21.066;2023-08-01T20:12:13;7.00;;;4.75;;
23474;SDS011;11910;52.086;21.066;2023-08-01T20:17:31;7.32;;;4.47;;
23474;SDS011;11910;52.086;21.066;2023-08-01T20:19:57;5.70;;;4.80;;
23474;SDS011;11910;52.086;21.066;2023-08-01T20:22:25;7.60;;;4.80;;
23474;SDS011;11910;52.086;21.066;2023-08-01T20:24:51;6.70;;;4.78;;
23474;SDS011;11910;52.086;21.066;2023-08-01T20:27:16;6.78;;;4.97;;
23474;SDS011;11910;52.086;21.066;2023-08-01T20:29:44;7.40;;;5.30;;
23474;SDS011;11910;52.086;21.066;2023-08-01T20:32:10;6.90;;;5.25;;
23474;SDS011;11910;52.086;21.066;2023-08-01T20:34:38;9.77;;;5.47;;
23474;SDS011;11910;52.086;21.066;2023-08-01T20:37:04;5.32;;;4.82;;
23474;SDS011;11910;52.086;21.066;2023-08-01T20:39:32;5.90;;;5.40;;
23474;SDS011;11910;52.086;21.066;2023-08-01T20:42:01;6.15;;;5.50;;
23474;SDS011;11910;52.086;21.066;2023-08-01T20:44:30;7.75;;;5.18;;
23474;SDS011;11910;52.086;21.066;2023-08-01T20:46:58;6.40;;;5.53;;
23474;SDS011;11910;52.086;21.066;2023-08-01T20:49:27;7.45;;;5.32;;
23474;SDS011;11910;52.086;21.066;2023-08-01T20:51:53;6.18;;;5.57;;
23474;SDS011;11910;52.086;21.066;2023-08-01T20:54:21;9.02;;;5.60;;
23474;SDS011;11910;52.086;21.066;2023-08-01T20:56:47;6.20;;;5.60;;
23474;SDS011;11910;52.086;21.066;2023-08-01T20:59:12;6.88;;;5.80;;
23474;SDS011;11910;52.086;21.066;2023-08-01T21:01:40;6.72;;;5.50;;
23474;SDS011;11910;52.086;21.066;2023-08-01T21:04:06;6.72;;;5.70;;
23474;SDS011;11910;52.086;21.066;2023-08-01T21:06:35;6.22;;;5.47;;
23474;SDS011;11910;52.086;21.066;2023-08-01T21:09:00;6.53;;;5.82;;
23474;SDS011;11910;52.086;21.066;2023-08-01T21:11:29;6.38;;;5.75;;
23474;SDS011;11910;52.086;21.066;2023-08-01T21:13:54;6.88;;;5.78;;
23474;SDS011;11910;52.086;21.066;2023-08-01T21:16:25;6.78;;;6.00;;
23474;SDS011;11910;52.086;21.066;2023-08-01T21:18:58;8.45;;;6.00;;
23474;SDS011;11910;52.086;21.066;2023-08-01T21:24:54;7.35;;;5.97;;
23474;SDS011;11910;52.086;21.066;2023-08-01T21:27:22;6.70;;;5.97;;
23474;SDS011;11910;52.086;21.066;2023-08-01T21:29:48;6.82;;;6.05;;
23474;SDS011;11910;52.086;21.066;2023-08-01T21:32:14;9.68;;;6.00;;
23474;SDS011;11910;52.086;21.066;2023-08-01T21:34:39;6.15;;;5.55;;
23474;SDS011;11910;52.086;21.066;2023-08-01T21:37:05;7.10;;;6.40;;
23474;SDS011;11910;52.086;21.066;2023-08-01T21:39:32;7.50;;;5.85;;
23474;SDS011;11910;52.086;21.066;2023-08-01T21:41:58;9.00;;;6.57;;
23474;SDS011;11910;52.086;21.066;2023-08-01T21:44:24;7.03;;;6.20;;
23474;SDS011;11910;52.086;21.066;2023-08-01T21:46:53;6.60;;;5.75;;
23474;SDS011;11910;52.086;21.066;2023-08-01T21:49:19;7.25;;;6.55;;
23474;SDS011;11910;52.086;21.066;2023-08-01T21:51:44;6.90;;;6.28;;
23474;SDS011;11910;52.086;21.066;2023-08-01T21:54:10;7.13;;;6.43;;
23474;SDS011;11910;52.086;21.066;2023-08-01T21:56:36;9.70;;;6.80;;
23474;SDS011;11910;52.086;21.066;2023-08-01T21:59:02;7.72;;;6.55;;
23474;SDS011;11910;52.086;21.066;2023-08-01T22:01:27;9.23;;;6.30;;
23474;SDS011;11910;52.086;21.066;2023-08-01T22:03:53;9.55;;;6.45;;
23474;SDS011;11910;52.086;21.066;2023-08-01T22:06:18;7.60;;;6.05;;
23474;SDS011;11910;52.086;21.066;2023-08-01T22:08:44;6.50;;;5.90;;
23474;SDS011;11910;52.086;21.066;2023-08-01T22:11:10;9.57;;;6.22;;
23474;SDS011;11910;52.086;21.066;2023-08-01T22:13:35;6.65;;;5.88;;
23474;SDS011;11910;52.086;21.066;2023-08-01T22:16:03;7.28;;;6.03;;
23474;SDS011;11910;52.086;21.066;2023-08-01T22:18:29;6.85;;;6.18;;
23474;SDS011;11910;52.086;21.066;2023-08-01T22:20:55;6.78;;;6.07;;
23474;SDS011;11910;52.086;21.066;2023-08-01T22:23:22;8.32;;;6.15;;
23474;SDS011;11910;52.086;21.066;2023-08-01T22:25:48;7.07;;;6.13;;
23474;SDS011;11910;52.086;21.066;2023-08-01T22:28:17;7.88;;;6.03;;
23474;SDS011;11910;52.086;21.066;2023-08-01T22:30:44;8.27;;;6.50;;
23474;SDS011;11910;52.086;21.066;2023-08-01T22:33:10;7.93;;;6.50;;
23474;SDS011;11910;52.086;21.066;2023-08-01T22:35:36;9.02;;;6.25;;
23474;SDS011;11910;52.086;21.066;2023-08-01T22:38:01;7.90;;;6.18;;
23474;SDS011;11910;52.086;21.066;2023-08-01T22:40:27;7.45;;;5.72;;
23474;SDS011;11910;52.086;21.066;2023-08-01T22:42:52;8.63;;;6.05;;
23474;SDS011;11910;52.086;21.066;2023-08-01T22:45:18;6.90;;;6.05;;
23474;SDS011;11910;52.086;21.066;2023-08-01T22:47:44;9.07;;;6.03;;
23474;SDS011;11910;52.086;21.066;2023-08-01T22:50:10;7.00;;;6.30;;
23474;SDS011;11910;52.086;21.066;2023-08-01T22:52:35;6.97;;;6.05;;
23474;SDS011;11910;52.086;21.066;2023-08-01T22:55:01;7.97;;;6.15;;
23474;SDS011;11910;52.086;21.066;2023-08-01T22:57:28;7.10;;;6.32;;
23474;SDS011;11910;52.086;21.066;2023-08-01T22:59:54;7.13;;;6.30;;
23474;SDS011;11910;52.086;21.066;2023-08-01T23:02:19;6.50;;;5.60;;
23474;SDS011;11910;52.086;21.066;2023-08-01T23:04:45;8.57;;;5.72;;
23474;SDS011;11910;52.086;21.066;2023-08-01T23:07:12;7.68;;;6.43;;
23474;SDS011;11910;52.086;21.066;2023-08-01T23:09:38;7.60;;;6.07;;
23474;SDS011;11910;52.086;21.066;2023-08-01T23:12:04;9.77;;;5.90;;
23474;SDS011;11910;52.086;21.066;2023-08-01T23:14:30;6.30;;;5.70;;
23474;SDS011;11910;52.086;21.066;2023-08-01T23:16:56;6.75;;;5.80;;
23474;SDS011;11910;52.086;21.066;2023-08-01T23:19:23;8.02;;;6.28;;
23474;SDS011;11910;52.086;21.066;2023-08-01T23:21:49;6.78;;;6.18;;
23474;SDS011;11910;52.086;21.066;2023-08-01T23:24:14;7.57;;;5.90;;
23474;SDS011;11910;52.086;21.066;2023-08-01T23:26:42;6.20;;;5.60;;
23474;SDS011;11910;52.086;21.066;2023-08-01T23:29:08;7.85;;;5.75;;
23474;SDS011;11910;52.086;21.066;2023-08-01T23:31:34;9.35;;;5.97;;
23474;SDS011;11910;52.086;21.066;2023-08-01T23:34:00;8.60;;;5.93;;
23474;SDS011;11910;52.086;21.066;2023-08-01T23:36:25;8.45;;;5.88;;
23474;SDS011;11910;52.086;21.066;2023-08-01T23:38:52;6.50;;;5.82;;
23474;SDS011;11910;52.086;21.066;2023-08-01T23:41:21;6.93;;;5.72;;
23474;SDS011;11910;52.086;21.066;2023-08-01T23:43:48;6.13;;;5.53;;
23474;SDS011;11910;52.086;21.066;2023-08-01T23:46:13;8.02;;;5.97;;
23474;SDS011;11910;52.086;21.066;2023-08-01T23:48:39;6.75;;;6.05;;
23474;SDS011;11910;52.086;21.066;2023-08-01T23:51:14;8.93;;;5.63;;
23474;SDS011;11910;52.086;21.066;2023-08-01T23:53:40;7.40;;;5.90;;
23474;SDS011;11910;52.086;21.066;2023-08-01T23:56:06;6.90;;;5.70;;
23474;SDS011;11910;52.086;21.066;2023-08-01T23:58:32;6.43;;;5.45;;
